Terminal Aerodrome Forecast
Issued by NWS

Home | Current Version | Previous Version | Text Only | Print | Product List | Glossary On
Versions: 1 2 3 4 5 6 7 8 9 10 11 12 13 14 15 16 17 18 19 20 21 22 23 24 25 26 27 28 29 30 31 32 33 34 35 36 37 38 39 40 41 42 43 44 45 46 47 48 49 50
000
FTUS41 KGYX 261120
TAFMHT
TAF
KMHT 261120Z 2612/2712 03007KT P6SM -SHRA OVC010
     FM261500 35007KT P6SM VCSH OVC012 PROB30 2621/2624 4SM -SHRA
      OVC012
     FM271100 33004KT P6SM SCT025=

USA.gov is the U.S. government's official web portal to all federal, state and local government web resources and services.